Time;durP1;ratioP1;P1;durP2;ratioP2;P2;SDS_P1;SDS_P2;PMS_P1;PMS_P2;Temp;Humidity;BMP_temperature;BMP_pressure;BME280_temperature;BME280_humidity;BME280_pressure;Samples;Min_cycle;Max_cycle;Signal;HPM_P1;HPM_P2
2020/12/17 07:43:13;;;;;;;260.07;114.33;;;;;;;0.49;100.00;99810.92;1824003;77;22323;-62
2020/12/17 07:45:52;;;;;;;242.37;120.33;;;;;;;0.59;100.00;99816.89;1827887;78;21569;-69
2020/12/17 07:48:47;;;;;;;219.23;117.77;;;;;;;0.69;100.00;99815.11;1828297;78;21073;-66
2020/12/17 07:51:21;;;;;;;222.93;120.63;;;;;;;0.76;100.00;99813.55;1828063;78;21127;-64
2020/12/17 07:53:49;;;;;;;205.30;112.93;;;;;;;0.87;100.00;99813.91;1827546;78;21117;-66
2020/12/17 07:56:15;;;;;;;194.87;110.30;;;;;;;0.97;100.00;99809.45;1818001;78;21188;-68
2020/12/17 07:58:41;;;;;;;183.40;106.77;;;;;;;1.09;100.00;99815.94;1792639;80;21110;-64
2020/12/17 08:01:09;;;;;;;181.63;100.50;;;;;;;1.20;100.00;99816.84;1758257;79;63400;-63
2020/12/17 08:03:51;;;;;;;166.67;93.70;;;;;;;1.30;100.00;99814.22;1679368;82;31993;-64
2020/12/17 08:06:22;;;;;;;165.50;89.40;;;;;;;1.43;100.00;99805.73;1684460;85;21166;-64
2020/12/17 08:08:54;;;;;;;143.43;80.27;;;;;;;1.55;100.00;99805.52;1683970;85;21146;-64
2020/12/17 08:11:20;;;;;;;138.07;77.73;;;;;;;1.61;100.00;99803.17;1683324;84;21268;-66
2020/12/17 08:13:47;;;;;;;138.80;73.80;;;;;;;1.66;100.00;99812.53;1701434;84;21282;-64
2020/12/17 08:16:12;;;;;;;123.03;72.37;;;;;;;1.71;100.00;99815.23;1686660;83;21499;-63
2020/12/17 08:18:38;;;;;;;126.27;69.93;;;;;;;1.77;100.00;99820.87;1686220;84;21106;-68
2020/12/17 08:21:11;;;;;;;128.60;72.00;;;;;;;1.80;100.00;99813.69;1671933;85;21158;-68
2020/12/17 08:23:39;;;;;;;131.63;67.97;;;;;;;1.89;100.00;99818.26;1686257;84;21625;-67
2020/12/17 08:26:06;;;;;;;120.17;67.70;;;;;;;1.97;100.00;99818.28;1685905;85;22020;-68
2020/12/17 08:28:37;;;;;;;121.73;66.67;;;;;;;2.04;100.00;99822.85;1685891;84;21284;-68
2020/12/17 08:31:14;;;;;;;119.80;66.33;;;;;;;2.11;100.00;99820.73;1685896;84;21122;-69
2020/12/17 08:33:44;;;;;;;126.30;66.47;;;;;;;2.16;100.00;99821.28;1685807;84;21106;-68
2020/12/17 08:36:12;;;;;;;123.57;65.73;;;;;;;2.21;100.00;99824.77;1685374;84;21204;-67
2020/12/17 08:38:38;;;;;;;119.07;65.70;;;;;;;2.19;100.00;99825.58;1686068;84;21134;-68
2020/12/17 08:41:07;;;;;;;114.03;64.23;;;;;;;2.15;100.00;99825.83;1684847;84;21244;-68
2020/12/17 08:43:48;;;;;;;122.77;66.90;;;;;;;2.12;100.00;99820.20;1678764;85;21118;-68
2020/12/17 08:46:16;;;;;;;128.83;68.60;;;;;;;2.13;100.00;99830.66;1678880;85;21578;-68
2020/12/17 08:48:43;;;;;;;115.47;64.57;;;;;;;2.17;100.00;99829.06;1678920;85;21134;-70
2020/12/17 08:51:14;;;;;;;118.73;67.77;;;;;;;2.21;100.00;99826.66;1665046;85;21164;-69
2020/12/17 08:53:42;;;;;;;129.15;70.20;;;;;;;2.32;100.00;99821.60;1678205;85;21114;-69
2020/12/17 08:56:15;;;;;;;120.63;65.80;;;;;;;2.37;100.00;99826.95;1678176;85;21179;-69
2020/12/17 08:59:01;;;;;;;123.20;68.67;;;;;;;2.36;100.00;99816.77;1678197;85;21265;-70
2020/12/17 09:01:35;;;;;;;113.87;60.03;;;;;;;2.46;100.00;99821.89;1678240;85;21604;-70
2020/12/17 09:04:10;;;;;;;118.50;62.83;;;;;;;2.54;100.00;99824.05;1677990;85;21130;-69
2020/12/17 09:06:41;;;;;;;124.63;71.30;;;;;;;2.53;99.42;99819.22;1678194;85;21111;-68
2020/12/17 09:09:15;;;;;;;128.63;69.37;;;;;;;2.73;100.00;99811.21;1677335;85;21570;-69
2020/12/17 09:11:43;;;;;;;126.37;67.33;;;;;;;2.72;98.85;99815.48;1678407;85;21090;-69
2020/12/17 09:14:10;;;;;;;124.90;66.13;;;;;;;2.75;97.73;99814.94;1678378;85;21106;-69
2020/12/17 09:16:39;;;;;;;134.20;68.37;;;;;;;2.62;96.29;99816.83;1678152;85;21141;-69
2020/12/17 09:19:08;;;;;;;134.90;72.27;;;;;;;2.43;92.30;99818.68;1678114;85;21150;-68
2020/12/17 09:21:59;;;;;;;131.60;66.47;;;;;;;2.44;95.71;99816.78;1678071;85;21606;-69
2020/12/17 09:24:34;;;;;;;132.87;69.27;;;;;;;2.53;95.41;99810.37;1678505;85;21511;-69
2020/12/17 09:27:29;;;;;;;127.27;66.23;;;;;;;2.55;96.94;99807.69;1678071;85;21130;-68
2020/12/17 09:30:16;;;;;;;120.33;64.53;;;;;;;2.56;97.27;99803.14;1664829;85;21153;-69
2020/12/17 09:32:55;;;;;;;127.67;66.83;;;;;;;2.58;96.94;99805.03;1678126;85;21167;-69
2020/12/17 09:35:30;;;;;;;131.67;70.17;;;;;;;2.39;94.50;99803.41;1664583;85;21117;-69
2020/12/17 09:38:13;;;;;;;118.57;63.90;;;;;;;2.47;96.19;99798.06;1676683;84;21164;-68
2020/12/17 09:40:45;;;;;;;123.97;65.40;;;;;;;2.58;95.53;99799.15;1676339;85;21796;-68
2020/12/17 09:43:12;;;;;;;115.60;63.37;;;;;;;2.70;96.45;99792.97;1673489;84;22263;-67
2020/12/17 09:45:40;;;;;;;115.33;61.03;;;;;;;2.86;97.51;99797.27;1671267;85;21133;-70
2020/12/17 09:48:21;;;;;;;117.47;64.73;;;;;;;3.04;97.77;99798.58;1671853;85;21163;-68
2020/12/17 09:51:04;;;;;;;114.07;61.83;;;;;;;3.13;97.15;99797.51;1671736;85;21203;-69
2020/12/17 09:53:42;;;;;;;116.80;61.60;;;;;;;3.16;96.59;99788.39;1671941;85;21179;-69
2020/12/17 09:56:13;;;;;;;107.97;59.30;;;;;;;3.11;96.46;99796.42;1674925;85;21142;-66
2020/12/17 09:58:46;;;;;;;102.73;57.10;;;;;;;2.96;94.46;99795.13;1669747;85;21277;-69
2020/12/17 10:01:13;;;;;;;99.73;55.50;;;;;;;3.09;94.69;99792.42;1671406;85;21136;-67
2020/12/17 10:03:39;;;;;;;100.33;53.50;;;;;;;3.09;94.54;99797.24;1673303;85;21205;-68
2020/12/17 10:06:05;;;;;;;97.13;52.70;;;;;;;2.85;91.49;99794.84;1674957;85;21106;-68
2020/12/17 10:08:32;;;;;;;96.40;52.33;;;;;;;2.74;92.61;99786.01;1676163;85;21134;-70
2020/12/17 10:10:59;;;;;;;95.40;49.37;;;;;;;2.80;93.51;99790.31;1658109;85;21134;-69
2020/12/17 10:13:26;;;;;;;92.33;48.80;;;;;;;2.81;93.29;99787.10;1672747;85;21148;-69
2020/12/17 10:15:51;;;;;;;92.73;49.53;;;;;;;2.75;92.46;99788.97;1672173;85;21109;-69
2020/12/17 10:18:18;;;;;;;91.67;45.13;;;;;;;2.69;92.71;99789.23;1671500;85;21120;-68
2020/12/17 10:20:43;;;;;;;87.27;46.73;;;;;;;2.76;92.87;99789.23;1672510;85;21143;-70
2020/12/17 10:23:09;;;;;;;87.03;45.90;;;;;;;2.75;92.76;99786.81;1655068;85;21168;-69
2020/12/17 10:25:35;;;;;;;85.23;47.10;;;;;;;2.86;92.97;99791.91;1676394;85;21250;-69
2020/12/17 10:28:01;;;;;;;90.73;47.97;;;;;;;3.04;92.85;99794.56;1678164;85;21166;-69
2020/12/17 10:30:27;;;;;;;93.00;51.80;;;;;;;3.10;92.58;99788.14;1678205;85;21118;-68
2020/12/17 10:32:55;;;;;;;95.07;53.53;;;;;;;3.14;91.74;99785.19;1664399;85;21142;-67
2020/12/17 10:35:21;;;;;;;93.23;50.37;;;;;;;3.28;91.44;99782.73;1678118;85;21558;-68
2020/12/17 10:37:47;;;;;;;86.90;47.20;;;;;;;3.40;90.40;99781.38;1678041;84;21207;-67
2020/12/17 10:40:13;;;;;;;91.23;49.00;;;;;;;3.57;89.75;99773.52;1678149;85;21270;-68
2020/12/17 10:42:40;;;;;;;80.53;46.63;;;;;;;3.47;88.37;99774.38;1678063;85;21176;-68
2020/12/17 10:45:06;;;;;;;89.90;46.40;;;;;;;3.71;89.91;99781.27;1678373;85;21302;-68
2020/12/17 10:47:32;;;;;;;83.37;44.67;;;;;;;3.85;89.78;99778.25;1678200;85;21540;-67
2020/12/17 10:49:58;;;;;;;83.67;46.03;;;;;;;3.96;89.29;99778.47;1678144;85;21142;-68
2020/12/17 10:52:24;;;;;;;91.87;50.40;;;;;;;4.08;89.12;99776.27;1678051;84;21126;-68
2020/12/17 10:54:50;;;;;;;76.00;42.13;;;;;;;4.22;88.83;99777.78;1678658;85;21118;-69
2020/12/17 10:57:19;;;;;;;79.83;44.03;;;;;;;4.27;87.59;99780.45;1678528;85;21126;-69
2020/12/17 10:59:45;;;;;;;81.27;47.67;;;;;;;4.42;87.40;99769.60;1678043;85;21142;-69
2020/12/17 11:02:11;;;;;;;82.87;45.80;;;;;;;4.56;86.98;99773.25;1678230;85;21114;-66
2020/12/17 11:04:37;;;;;;;84.47;48.87;;;;;;;4.59;85.80;99779.94;1678243;85;21098;-64
2020/12/17 11:07:03;;;;;;;83.53;46.77;;;;;;;4.56;85.69;99771.91;1678316;85;21534;-65
2020/12/17 11:09:29;;;;;;;83.87;50.73;;;;;;;4.34;84.65;99775.02;1678562;85;21074;-65
2020/12/17 11:11:55;;;;;;;87.10;48.93;;;;;;;4.26;84.90;99776.95;1678246;85;21164;-65
2020/12/17 11:14:21;;;;;;;85.20;49.43;;;;;;;4.19;84.72;99774.31;1677955;85;21159;-67
2020/12/17 11:16:50;;;;;;;83.67;46.27;;;;;;;4.15;85.02;99775.95;1678185;85;21268;-67
2020/12/17 11:19:17;;;;;;;83.13;47.53;;;;;;;4.11;85.15;99773.55;1678263;85;21094;-67
2020/12/17 11:21:43;;;;;;;81.97;45.57;;;;;;;4.13;85.31;99770.84;1678033;85;21126;-69
2020/12/17 11:24:09;;;;;;;88.53;47.00;;;;;;;4.02;84.51;99770.64;1676181;85;21607;-67
2020/12/17 11:26:42;;;;;;;88.33;47.57;;;;;;;3.85;83.82;99771.55;1672862;85;21554;-68
2020/12/17 11:29:08;;;;;;;85.80;49.03;;;;;;;4.01;84.56;99776.30;1670203;85;21096;-70
2020/12/17 11:31:34;;;;;;;83.43;46.23;;;;;;;4.01;84.72;99777.64;1671487;85;21158;-70
2020/12/17 11:34:00;;;;;;;77.10;42.57;;;;;;;3.97;84.68;99755.11;1674851;85;21132;-69
2020/12/17 11:36:25;;;;;;;80.33;44.57;;;;;;;4.04;84.46;99774.40;1678077;85;21102;-70
2020/12/17 11:38:51;;;;;;;78.67;44.17;;;;;;;4.04;84.17;99778.42;1664189;85;21117;-68
2020/12/17 11:41:17;;;;;;;85.17;48.20;;;;;;;4.14;84.04;99772.45;1678136;85;21160;-65
2020/12/17 11:43:43;;;;;;;80.80;47.70;;;;;;;4.41;84.08;99779.27;1677962;85;21259;-66
2020/12/17 11:46:09;;;;;;;81.77;45.97;;;;;;;4.68;83.99;99771.55;1678370;85;21263;-67
2020/12/17 11:48:35;;;;;;;80.63;44.70;;;;;;;4.97;83.89;99772.91;1677953;85;21155;-67
2020/12/17 11:51:01;;;;;;;81.63;45.87;;;;;;;5.26;83.61;99766.97;1678626;85;21156;-67
2020/12/17 11:53:28;;;;;;;80.03;45.83;;;;;;;5.47;82.88;99772.41;1678566;85;21607;-69
2020/12/17 11:55:54;;;;;;;76.37;45.70;;;;;;;5.62;82.16;99772.23;1678517;85;21158;-67
2020/12/17 11:58:20;;;;;;;78.40;46.40;;;;;;;5.71;81.35;99775.06;1678580;85;21240;-64
2020/12/17 12:00:46;;;;;;;82.03;47.53;;;;;;;5.72;80.97;99776.67;1678118;85;21146;-65
2020/12/17 12:03:12;;;;;;;76.60;44.60;;;;;;;5.69;80.61;99765.14;1678253;85;21090;-60
2020/12/17 12:05:38;;;;;;;85.10;46.20;;;;;;;5.67;80.43;99772.15;1678842;85;21118;-54
2020/12/17 12:08:03;;;;;;;95.20;52.23;;;;;;;5.67;80.01;99774.84;1678183;84;21582;-67
2020/12/17 12:10:30;;;;;;;87.73;51.20;;;;;;;5.65;80.53;99769.50;1678171;85;21106;-67
2020/12/17 12:12:56;;;;;;;84.30;50.77;;;;;;;5.60;79.75;99770.89;1678795;85;21535;-66
2020/12/17 12:15:22;;;;;;;85.47;47.07;;;;;;;5.57;79.94;99776.85;1678230;85;21086;-67
2020/12/17 12:17:48;;;;;;;76.20;43.63;;;;;;;5.48;79.63;99769.95;1678762;85;21528;-68
2020/12/17 12:20:14;;;;;;;85.50;48.20;;;;;;;5.28;78.80;99770.19;1678140;85;21142;-67
2020/12/17 12:22:39;;;;;;;88.77;48.27;;;;;;;5.18;79.04;99771.08;1678294;84;21151;-67
2020/12/17 12:25:05;;;;;;;84.87;48.83;;;;;;;5.16;79.07;99771.92;1678711;85;21295;-66
2020/12/17 12:27:31;;;;;;;88.13;48.43;;;;;;;5.19;78.93;99767.84;1678334;85;21156;-67
2020/12/17 12:29:57;;;;;;;85.83;49.23;;;;;;;5.17;79.04;99762.77;1678354;85;21098;-70
2020/12/17 12:32:23;;;;;;;83.83;46.97;;;;;;;5.24;78.93;99771.30;1678388;85;21141;-69
2020/12/17 12:34:48;;;;;;;84.30;47.17;;;;;;;5.22;79.04;99765.39;1678773;85;21132;-69
2020/12/17 12:37:15;;;;;;;86.37;48.17;;;;;;;5.15;78.74;99757.39;1678407;84;21498;-69
2020/12/17 12:39:42;;;;;;;75.77;44.20;;;;;;;5.16;78.66;99766.54;1678830;85;21191;-69
2020/12/17 12:42:08;;;;;;;91.17;51.27;;;;;;;5.21;78.51;99762.43;1678029;85;21126;-68
2020/12/17 12:44:34;;;;;;;88.27;48.10;;;;;;;5.34;78.54;99766.34;1678475;85;21243;-70
2020/12/17 12:47:00;;;;;;;83.93;45.80;;;;;;;5.44;78.51;99770.80;1674904;85;21166;-70
2020/12/17 12:49:26;;;;;;;90.97;50.57;;;;;;;5.47;78.50;99769.71;1671479;85;21118;-71
2020/12/17 12:51:52;;;;;;;91.47;49.50;;;;;;;5.49;78.54;99770.75;1672022;84;21109;-71
2020/12/17 12:54:17;;;;;;;94.80;48.97;;;;;;;5.46;78.30;99767.30;1673147;85;21146;-70
2020/12/17 12:56:43;;;;;;;86.13;46.63;;;;;;;5.32;78.10;99769.88;1673128;85;21142;-69
2020/12/17 12:59:09;;;;;;;77.37;41.20;;;;;;;5.31;78.02;99769.07;1672379;85;21132;-70
2020/12/17 13:01:39;;;;;;;83.10;45.07;;;;;;;5.24;77.85;99767.27;1672390;85;21142;-70
2020/12/17 13:04:05;;;;;;;78.80;42.70;;;;;;;5.19;78.05;99760.59;1666933;85;21587;-70
2020/12/17 13:06:31;;;;;;;76.77;40.50;;;;;;;5.32;78.14;99762.58;1671303;85;21148;-69
2020/12/17 13:08:58;;;;;;;79.83;40.53;;;;;;;5.34;78.18;99760.42;1672198;84;21682;-69
2020/12/17 13:11:24;;;;;;;73.63;42.83;;;;;;;5.39;78.29;99760.92;1671622;85;21148;-69
2020/12/17 13:13:50;;;;;;;74.67;39.90;;;;;;;5.41;77.80;99759.27;1670449;84;21173;-69
2020/12/17 13:16:29;;;;;;;69.83;38.00;;;;;;;5.40;77.77;99757.69;1679488;84;21106;-69
2020/12/17 13:18:56;;;;;;;69.07;38.63;;;;;;;5.40;77.53;99759.81;1678090;85;21570;-66
2020/12/17 13:21:23;;;;;;;70.00;39.77;;;;;;;5.37;77.38;99767.11;1706471;84;21111;-65
2020/12/17 13:23:50;;;;;;;73.33;39.67;;;;;;;5.32;77.10;99755.08;1706179;84;21087;-66
2020/12/17 13:26:17;;;;;;;72.63;41.50;;;;;;;5.28;77.08;99757.55;1706702;83;21160;-66
2020/12/17 13:28:43;;;;;;;77.53;41.57;;;;;;;5.22;77.11;99757.32;1695970;83;21159;-64
2020/12/17 13:31:08;;;;;;;69.23;37.00;;;;;;;5.25;77.17;99759.44;1678426;84;21105;-65
2020/12/17 13:33:36;;;;;;;75.10;40.03;;;;;;;5.07;76.81;99761.50;1706610;83;21225;-62
2020/12/17 13:36:05;;;;;;;67.47;37.87;;;;;;;5.09;77.63;99762.04;1706426;84;21855;-63
2020/12/17 13:38:31;;;;;;;69.10;36.57;;;;;;;5.11;77.85;99762.55;1706533;84;21115;-67
2020/12/17 13:40:56;;;;;;;65.10;35.60;;;;;;;5.06;77.73;99763.16;1706400;84;21132;-65
2020/12/17 13:43:22;;;;;;;68.47;35.53;;;;;;;4.94;77.42;99762.19;1699787;82;21207;-67
2020/12/17 13:45:51;;;;;;;67.47;32.70;;;;;;;4.88;77.32;99767.33;1672162;85;21115;-67
2020/12/17 13:48:17;;;;;;;53.87;27.70;;;;;;;4.89;77.22;99766.25;1671467;85;21126;-67
2020/12/17 13:50:43;;;;;;;72.57;35.27;;;;;;;4.85;77.28;99761.98;1666745;86;21248;-67
2020/12/17 13:53:10;;;;;;;67.23;34.30;;;;;;;4.90;77.21;99759.80;1667103;86;21186;-69
2020/12/17 13:55:35;;;;;;;62.23;32.73;;;;;;;4.95;77.54;99758.39;1672378;85;21535;-67
2020/12/17 13:58:02;;;;;;;65.53;34.40;;;;;;;4.99;77.64;99761.31;1677797;84;21107;-67
2020/12/17 14:00:28;;;;;;;68.50;33.63;;;;;;;5.00;77.80;99761.04;1677730;85;21134;-68
2020/12/17 14:02:54;;;;;;;56.97;29.23;;;;;;;4.98;77.66;99757.84;1676379;85;21261;-68
2020/12/17 14:05:20;;;;;;;60.77;29.17;;;;;;;4.94;77.37;99758.16;1671508;85;21138;-69
2020/12/17 14:07:46;;;;;;;64.83;32.17;;;;;;;4.92;77.16;99762.99;1673349;84;21095;-69
2020/12/17 14:10:17;;;;;;;67.23;33.13;;;;;;;4.76;76.77;99759.63;1672387;85;21099;-69
2020/12/17 14:12:39;;;;;;;67.97;33.03;;;;;;;4.63;77.09;99761.64;1670424;85;21261;-69
2020/12/17 14:15:05;;;;;;;45.93;23.40;;;;;;;4.50;77.49;99758.23;1673930;84;21187;-69
2020/12/17 14:17:32;;;;;;;58.53;29.40;;;;;;;4.32;77.57;99768.30;1668150;85;21265;-64
2020/12/17 14:19:57;;;;;;;65.10;32.93;;;;;;;3.85;78.88;99770.20;1668128;86;21126;-64
2020/12/17 14:22:23;;;;;;;58.40;28.87;;;;;;;3.94;78.89;99770.44;1666900;85;21335;-64
2020/12/17 14:24:49;;;;;;;66.47;33.50;;;;;;;3.70;79.31;99781.00;1667094;86;21244;-63
2020/12/17 14:27:15;;;;;;;66.77;34.80;;;;;;;3.93;79.44;99771.51;1667330;86;21544;-58
2020/12/17 14:29:40;;;;;;;68.60;34.30;;;;;;;4.03;79.52;99766.88;1675378;84;22238;-64
2020/12/17 14:32:06;;;;;;;60.30;32.83;;;;;;;4.13;79.64;99771.38;1677881;85;21130;-63
2020/12/17 14:34:32;;;;;;;54.57;29.70;;;;;;;4.13;79.41;99766.81;1677849;85;21153;-69
2020/12/17 14:36:59;;;;;;;56.17;29.77;;;;;;;3.81;79.21;99774.52;1677565;85;21531;-69
2020/12/17 14:39:25;;;;;;;61.07;32.07;;;;;;;3.70;79.89;99774.30;1677681;85;21232;-68
2020/12/17 14:41:57;;;;;;;63.63;33.60;;;;;;;3.78;79.92;99777.75;1678017;85;21103;-68
2020/12/17 14:44:23;;;;;;;58.33;31.52;;;;;;;3.95;79.74;99778.73;1677999;84;21184;-68
2020/12/17 14:46:49;;;;;;;62.10;31.93;;;;;;;4.03;79.83;99771.44;1677607;85;21574;-69
2020/12/17 14:49:16;;;;;;;71.43;37.03;;;;;;;4.12;79.79;99767.91;1677692;85;21096;-66
2020/12/17 14:51:41;;;;;;;69.73;36.83;;;;;;;4.17;79.63;99768.41;1677584;85;21150;-68
2020/12/17 14:54:08;;;;;;;77.67;40.17;;;;;;;4.17;79.44;99765.72;1652094;85;21489;-68
